createdAt,value
2022-09-02T00:00:09.760Z,21.58
2022-09-02T00:02:38.436Z,21.37
2022-09-02T00:05:07.709Z,20.79
2022-09-02T00:07:37.247Z,20.91
2022-09-02T00:10:06.693Z,21.47
2022-09-02T00:12:35.284Z,21.09
2022-09-02T00:15:05.879Z,20.79
2022-09-02T00:17:35.222Z,20.97
2022-09-02T00:20:04.604Z,21.07
2022-09-02T00:22:34.170Z,20.77
2022-09-02T00:25:02.218Z,20.74
2022-09-02T00:27:31.333Z,20.97
2022-09-02T00:29:59.192Z,21.16
2022-09-02T00:32:31.059Z,20.82
2022-09-02T00:35:00.336Z,20.82
2022-09-02T00:37:31.563Z,20.61
2022-09-02T00:40:02.307Z,20.29
2022-09-02T00:42:30.202Z,20.59
2022-09-02T00:44:59.397Z,20.47
2022-09-02T00:47:27.444Z,20.00
2022-09-02T00:49:56.258Z,20.22
2022-09-02T00:52:29.685Z,20.31
2022-09-02T00:55:06.316Z,20.38
2022-09-02T00:57:44.694Z,20.12
2022-09-02T01:00:38.407Z,19.86
2022-09-02T01:03:11.809Z,19.58
2022-09-02T01:05:45.917Z,19.26
2022-09-02T01:08:24.592Z,19.50
2022-09-02T01:10:56.053Z,19.40
2022-09-02T01:13:29.837Z,19.30
2022-09-02T01:16:30.224Z,19.16
2022-09-02T01:19:02.065Z,19.47
2022-09-02T01:21:30.257Z,19.71
2022-09-02T01:24:00.203Z,19.37
2022-09-02T01:26:29.170Z,19.45
2022-09-02T01:28:58.235Z,19.76
2022-09-02T01:31:27.317Z,20.05
2022-09-02T01:33:55.565Z,19.88
2022-09-02T01:36:24.814Z,19.71
2022-09-02T01:38:55.750Z,19.53
2022-09-02T01:41:24.919Z,19.57
2022-09-02T01:43:53.280Z,19.39
2022-09-02T01:46:23.815Z,19.36
2022-09-02T01:48:52.167Z,19.28
2022-09-02T01:51:21.834Z,19.01
2022-09-02T01:53:50.569Z,18.77
2022-09-02T01:56:19.791Z,18.63
2022-09-02T01:58:48.168Z,18.95
2022-09-02T02:01:17.325Z,19.46
2022-09-02T02:03:47.582Z,18.95
2022-09-02T02:06:18.371Z,18.86
2022-09-02T02:08:47.085Z,19.17
2022-09-02T02:11:26.510Z,19.65
2022-09-02T02:13:55.071Z,19.59
2022-09-02T02:16:24.409Z,19.37
2022-09-02T02:18:52.242Z,19.15
2022-09-02T02:21:21.803Z,18.57
2022-09-02T02:23:52.016Z,18.89
2022-09-02T02:26:20.446Z,18.84
2022-09-02T02:28:50.020Z,19.39
2022-09-02T02:31:18.351Z,18.69
2022-09-02T02:33:47.877Z,18.38
2022-09-02T02:36:18.030Z,18.86
2022-09-02T02:38:46.995Z,18.61
2022-09-02T02:41:15.742Z,19.03
2022-09-02T02:43:46.075Z,18.99
2022-09-02T02:46:15.696Z,19.03
2022-09-02T02:48:44.480Z,19.40
2022-09-02T02:51:12.320Z,18.96
2022-09-02T02:53:40.701Z,18.53
2022-09-02T02:56:10.104Z,18.67
2022-09-02T02:58:41.062Z,18.37
2022-09-02T03:01:11.114Z,18.10
2022-09-02T03:03:40.381Z,18.85
2022-09-02T03:06:08.274Z,18.58
2022-09-02T03:08:37.755Z,18.79
2022-09-02T03:11:08.915Z,18.60
2022-09-02T03:13:38.160Z,18.65
2022-09-02T03:16:07.154Z,18.80
2022-09-02T03:18:37.253Z,19.16
2022-09-02T03:21:08.609Z,18.97
2022-09-02T03:23:39.494Z,18.76
2022-09-02T03:26:26.483Z,18.88
2022-09-02T03:29:00.465Z,18.79
2022-09-02T03:31:28.854Z,18.23
2022-09-02T03:33:58.019Z,17.95
2022-09-02T03:36:33.996Z,18.05
2022-09-02T03:39:04.518Z,17.89
2022-09-02T03:41:32.406Z,17.81
2022-09-02T03:44:03.111Z,17.75
2022-09-02T03:46:31.481Z,17.63
2022-09-02T03:49:00.270Z,17.57
2022-09-02T03:51:29.339Z,17.68
2022-09-02T03:53:57.482Z,17.88
2022-09-02T03:56:26.564Z,17.71
2022-09-02T03:58:55.748Z,17.55
2022-09-02T04:01:27.969Z,17.59
2022-09-02T04:04:00.192Z,17.56
2022-09-02T04:06:32.623Z,17.74
2022-09-02T04:09:02.409Z,17.77
2022-09-02T04:11:31.689Z,17.98
2022-09-02T04:14:00.485Z,18.08
2022-09-02T04:16:29.992Z,18.11
2022-09-02T04:19:02.168Z,18.32
2022-09-02T04:21:35.586Z,18.73
2022-09-02T04:24:07.519Z,19.26
2022-09-02T04:26:44.942Z,19.57
2022-09-02T04:29:14.347Z,19.06
2022-09-02T04:31:47.054Z,19.37
2022-09-02T04:34:30.356Z,18.96
2022-09-02T04:36:59.917Z,18.85
2022-09-02T04:39:28.352Z,18.70
2022-09-02T04:41:57.601Z,18.62
2022-09-02T04:44:27.829Z,18.74
2022-09-02T04:46:56.398Z,18.90
2022-09-02T04:49:25.818Z,19.16
2022-09-02T04:51:55.718Z,18.96
2022-09-02T04:54:24.455Z,18.97
2022-09-02T04:56:53.681Z,19.02
2022-09-02T04:59:22.221Z,19.22
2022-09-02T05:01:51.330Z,19.23
2022-09-02T05:04:20.238Z,19.74
2022-09-02T05:06:48.371Z,19.98
2022-09-02T05:09:17.341Z,19.95
2022-09-02T05:11:48.237Z,19.98
2022-09-02T05:14:16.691Z,20.54
2022-09-02T05:16:46.315Z,20.78
2022-09-02T05:19:14.647Z,20.50
2022-09-02T05:21:44.984Z,20.77
2022-09-02T05:24:13.331Z,20.23
2022-09-02T05:26:47.528Z,20.16
2022-09-02T05:29:17.996Z,20.31
2022-09-02T05:31:49.153Z,20.16
2022-09-02T05:34:18.886Z,20.41
2022-09-02T05:36:48.036Z,20.67
2022-09-02T05:39:17.543Z,20.73
2022-09-02T05:41:46.209Z,20.93
2022-09-02T05:44:15.035Z,20.93
2022-09-02T05:46:48.099Z,20.74
2022-09-02T05:49:22.260Z,20.89
2022-09-02T05:51:55.851Z,21.34
2022-09-02T05:54:30.416Z,21.89
2022-09-02T05:57:07.027Z,22.35
2022-09-02T05:59:39.304Z,22.08
2022-09-02T06:02:13.176Z,21.67
2022-09-02T06:04:45.718Z,22.53
2022-09-02T06:07:15.855Z,23.01
2022-09-02T06:09:45.115Z,23.15
2022-09-02T06:12:18.008Z,23.11
2022-09-02T06:14:48.872Z,23.06
2022-09-02T06:17:18.473Z,23.39
2022-09-02T06:19:46.244Z,23.18
2022-09-02T06:22:15.311Z,23.33
2022-09-02T06:24:43.207Z,23.31
2022-09-02T06:27:11.210Z,23.03
2022-09-02T06:29:40.542Z,22.62
2022-09-02T06:32:10.951Z,23.14
2022-09-02T06:34:39.557Z,23.33
2022-09-02T06:37:08.587Z,23.59
2022-09-02T06:39:38.354Z,23.69
2022-09-02T06:42:06.166Z,23.88
2022-09-02T06:44:34.520Z,23.78
2022-09-02T06:47:03.015Z,23.71
2022-09-02T06:49:30.842Z,24.05
2022-09-02T06:52:00.535Z,24.01
2022-09-02T06:54:28.924Z,24.19
2022-09-02T06:56:57.254Z,24.11
2022-09-02T06:59:25.261Z,24.15
2022-09-02T07:01:52.966Z,24.39
2022-09-02T07:04:42.203Z,24.48
2022-09-02T07:07:12.174Z,24.57
2022-09-02T07:09:39.705Z,24.69
2022-09-02T07:12:08.852Z,24.46
2022-09-02T07:14:39.557Z,24.64
2022-09-02T07:17:10.444Z,24.47
2022-09-02T07:19:40.136Z,24.58
2022-09-02T07:22:07.918Z,24.82
2022-09-02T07:24:37.577Z,24.82
2022-09-02T07:27:06.702Z,24.82
2022-09-02T07:29:35.663Z,24.80
2022-09-02T07:32:03.662Z,25.02
2022-09-02T07:34:34.846Z,25.12
2022-09-02T07:37:06.195Z,25.18
2022-09-02T07:39:40.717Z,25.20
2022-09-02T07:42:11.936Z,24.84
2022-09-02T07:44:39.539Z,25.03
2022-09-02T07:47:07.498Z,25.20
2022-09-02T07:52:24.035Z,25.24
2022-09-02T07:54:52.152Z,24.98
2022-09-02T07:57:20.785Z,24.90
2022-09-02T07:59:48.902Z,24.89
2022-09-02T08:02:18.902Z,25.21
2022-09-02T08:04:46.968Z,25.63
2022-09-02T08:07:14.827Z,25.15
2022-09-02T08:09:42.406Z,25.34
2022-09-02T08:12:10.959Z,25.55
2022-09-02T08:14:38.614Z,25.80
2022-09-02T08:17:06.365Z,25.93
2022-09-02T08:19:34.393Z,26.13
2022-09-02T08:22:08.763Z,26.17
2022-09-02T08:24:36.649Z,26.00
2022-09-02T08:27:04.202Z,25.90
2022-09-02T08:29:32.084Z,26.03
2022-09-02T08:32:02.495Z,26.11
2022-09-02T08:34:31.748Z,26.18
2022-09-02T08:36:59.539Z,26.42
2022-09-02T08:39:27.984Z,26.49
2022-09-02T08:42:19.335Z,26.65
2022-09-02T08:44:49.328Z,26.68
2022-09-02T08:47:23.185Z,26.37
2022-09-02T08:49:56.388Z,26.78
2022-09-02T08:52:54.293Z,26.88
2022-09-02T08:55:28.264Z,26.71
2022-09-02T08:57:57.809Z,26.86
2022-09-02T09:00:25.394Z,26.98
2022-09-02T09:03:17.837Z,27.05
2022-09-02T09:06:07.562Z,26.81
2022-09-02T09:08:58.013Z,27.04
2022-09-02T09:11:52.542Z,26.76
2022-09-02T09:14:21.053Z,26.95
2022-09-02T09:17:01.225Z,27.15
2022-09-02T09:19:33.518Z,27.62
2022-09-02T09:22:03.703Z,27.62
2022-09-02T09:24:33.067Z,27.40
2022-09-02T09:27:05.011Z,27.80
2022-09-02T09:29:36.480Z,27.81
2022-09-02T09:32:11.222Z,27.72
2022-09-02T09:34:52.561Z,27.96
2022-09-02T09:37:40.044Z,27.93
2022-09-02T09:40:25.909Z,27.78
2022-09-02T09:43:09.997Z,28.04
2022-09-02T09:45:46.481Z,28.27
2022-09-02T09:48:23.705Z,28.60
2022-09-02T09:50:58.064Z,28.19
2022-09-02T09:53:32.633Z,28.42
2022-09-02T09:56:06.823Z,28.56
2022-09-02T09:58:46.968Z,28.31
2022-09-02T10:01:23.342Z,28.10
2022-09-02T10:04:42.316Z,28.34
2022-09-02T10:07:02.076Z,28.24
2022-09-02T10:09:34.663Z,28.60
2022-09-02T10:12:08.635Z,28.89
2022-09-02T10:14:46.524Z,28.94
2022-09-02T10:17:48.883Z,28.97
2022-09-02T10:23:57.218Z,29.11
2022-09-02T10:26:34.110Z,29.23
2022-09-02T10:29:33.611Z,29.49
2022-09-02T10:32:48.587Z,29.68
2022-09-02T10:35:35.942Z,29.63
2022-09-02T10:38:43.990Z,29.19
2022-09-02T10:41:35.026Z,29.70
2022-09-02T10:44:26.846Z,29.57
2022-09-02T10:47:15.993Z,29.71
2022-09-02T10:50:04.608Z,29.60
2022-09-02T10:52:54.657Z,29.62
2022-09-02T10:55:56.464Z,29.60
2022-09-02T10:58:51.717Z,29.00
2022-09-02T11:01:31.919Z,29.23
2022-09-02T11:04:34.875Z,29.04
2022-09-02T11:07:17.549Z,28.84
2022-09-02T11:10:08.767Z,28.86
2022-09-02T11:12:44.480Z,28.65
2022-09-02T11:15:45.753Z,29.01
2022-09-02T11:18:45.501Z,28.48
2022-09-02T11:21:50.722Z,28.48
2022-09-02T11:24:46.575Z,28.61
2022-09-02T11:27:42.639Z,28.53
2022-09-02T11:30:24.898Z,28.45
2022-09-02T11:33:13.363Z,28.22
2022-09-02T11:35:45.255Z,28.51
2022-09-02T11:38:19.086Z,28.21
2022-09-02T11:41:35.846Z,28.23
2022-09-02T11:44:31.311Z,28.29
2022-09-02T11:47:16.834Z,28.44
2022-09-02T11:50:02.357Z,28.29
2022-09-02T11:52:41.211Z,28.58
2022-09-02T11:55:17.427Z,28.59
2022-09-02T11:57:54.403Z,28.64
2022-09-02T12:00:37.059Z,28.36
2022-09-02T12:03:11.957Z,28.47
2022-09-02T12:05:48.071Z,28.42
2022-09-02T12:08:36.993Z,28.64
2022-09-02T12:11:07.180Z,28.31
2022-09-02T12:13:43.754Z,28.75
2022-09-02T12:16:24.436Z,28.99
2022-09-02T12:18:54.405Z,29.23
2022-09-02T12:21:24.264Z,29.26
2022-09-02T12:23:58.271Z,29.75
2022-09-02T12:26:28.694Z,29.91
2022-09-02T12:29:25.147Z,30.63
2022-09-02T12:31:54.095Z,31.25
2022-09-02T12:34:27.800Z,31.60
2022-09-02T12:37:02.928Z,31.82
2022-09-02T12:39:35.623Z,31.93
2022-09-02T12:42:12.811Z,32.42
2022-09-02T12:45:00.213Z,33.40
2022-09-02T12:47:32.707Z,32.92
2022-09-02T12:50:27.374Z,33.82
2022-09-02T12:53:36.031Z,33.57
2022-09-02T12:56:07.105Z,33.38
2022-09-02T12:58:41.521Z,33.71
2022-09-02T13:01:28.039Z,33.39
2022-09-02T13:04:14.602Z,33.25
2022-09-02T13:06:46.803Z,33.95
2022-09-02T13:09:54.090Z,33.47
2022-09-02T13:12:32.011Z,33.68
2022-09-02T13:15:23.471Z,33.56
2022-09-02T13:18:09.998Z,32.94
2022-09-02T13:21:14.745Z,33.20
2022-09-02T13:23:54.784Z,34.51
2022-09-02T13:26:50.239Z,34.45
2022-09-02T13:30:10.512Z,33.79
2022-09-02T13:32:39.454Z,33.08
2022-09-02T13:35:21.479Z,33.86
2022-09-02T13:37:59.908Z,32.60
2022-09-02T13:40:27.838Z,33.37
2022-09-02T13:43:03.335Z,33.54
2022-09-02T13:45:35.253Z,33.90
2022-09-02T13:48:15.967Z,33.47
2022-09-02T13:50:55.413Z,33.18
2022-09-02T13:56:27.644Z,33.25
2022-09-02T13:58:57.423Z,32.99
2022-09-02T14:01:29.214Z,33.28
2022-09-02T14:04:00.531Z,33.14
2022-09-02T14:06:38.702Z,32.10
2022-09-02T14:09:19.031Z,32.00
2022-09-02T14:11:48.577Z,31.29
2022-09-02T14:14:22.604Z,30.86
2022-09-02T14:16:50.647Z,30.19
2022-09-02T14:19:18.948Z,29.99
2022-09-02T14:22:01.003Z,29.59
2022-09-02T14:24:40.339Z,29.41
2022-09-02T14:27:20.351Z,28.47
2022-09-02T14:29:55.318Z,28.43
2022-09-02T14:32:28.007Z,28.69
2022-09-02T14:35:24.172Z,27.94
2022-09-02T14:37:56.383Z,27.96
2022-09-02T14:40:37.380Z,27.86
2022-09-02T14:43:17.882Z,27.71
2022-09-02T14:45:50.100Z,27.63
2022-09-02T14:48:27.221Z,27.22
2022-09-02T14:51:05.844Z,27.25
2022-09-02T14:53:37.986Z,26.74
2022-09-02T14:56:07.057Z,26.91
2022-09-02T14:58:36.818Z,26.78
2022-09-02T15:01:10.093Z,26.36
2022-09-02T15:03:39.595Z,26.23
2022-09-02T15:06:13.142Z,26.17
2022-09-02T15:08:45.098Z,26.00
2022-09-02T15:11:18.618Z,26.18
2022-09-02T15:13:47.285Z,25.68
2022-09-02T15:16:17.694Z,25.84
2022-09-02T15:18:46.403Z,25.74
2022-09-02T15:21:16.821Z,25.86
2022-09-02T15:23:50.966Z,25.54
2022-09-02T15:26:20.599Z,25.48
2022-09-02T15:28:54.457Z,25.61
2022-09-02T15:31:24.782Z,25.40
2022-09-02T15:33:53.351Z,25.18
2022-09-02T15:36:21.573Z,25.31
2022-09-02T15:38:51.137Z,25.10
2022-09-02T15:41:22.445Z,25.02
2022-09-02T15:43:54.142Z,25.06
2022-09-02T15:46:29.523Z,25.06
2022-09-02T15:49:05.116Z,25.08
2022-09-02T15:51:36.312Z,24.88
2022-09-02T15:54:08.771Z,24.55
2022-09-02T15:56:40.768Z,24.52
2022-09-02T15:59:13.741Z,24.61
2022-09-02T16:01:46.560Z,24.76
2022-09-02T16:04:16.571Z,24.80
2022-09-02T16:06:48.593Z,24.36
2022-09-02T16:09:18.612Z,24.14
2022-09-02T16:11:53.607Z,23.94
2022-09-02T16:14:24.975Z,23.78
2022-09-02T16:16:56.253Z,23.65
2022-09-02T16:19:30.197Z,23.44
2022-09-02T16:22:01.543Z,23.32
2022-09-02T16:24:30.934Z,23.27
2022-09-02T16:26:59.437Z,23.11
2022-09-02T16:29:31.283Z,22.95
2022-09-02T16:32:21.455Z,22.96
2022-09-02T16:34:50.321Z,22.91
2022-09-02T16:37:19.674Z,22.83
2022-09-02T16:39:50.439Z,22.86
2022-09-02T16:42:19.610Z,22.94
2022-09-02T16:44:53.508Z,22.74
2022-09-02T16:47:22.596Z,22.59
2022-09-02T16:49:51.485Z,22.59
2022-09-02T16:52:20.868Z,22.60
2022-09-02T16:54:49.975Z,22.66
2022-09-02T16:57:19.076Z,22.49
2022-09-02T16:59:47.355Z,22.46
2022-09-02T17:02:16.804Z,22.52
2022-09-02T17:04:45.314Z,22.50
2022-09-02T17:07:14.442Z,22.28
2022-09-02T17:09:44.826Z,22.45
2022-09-02T17:12:14.540Z,22.45
2022-09-02T17:14:43.803Z,22.63
2022-09-02T17:17:17.698Z,22.56
2022-09-02T17:19:48.440Z,22.49
2022-09-02T17:22:17.748Z,22.30
2022-09-02T17:24:53.510Z,22.25
2022-09-02T17:27:22.799Z,22.36
2022-09-02T17:29:51.923Z,22.40
2022-09-02T17:32:20.763Z,22.30
2022-09-02T17:34:55.828Z,22.41
2022-09-02T17:37:33.367Z,22.50
2022-09-02T17:40:45.169Z,22.71
2022-09-02T17:43:14.383Z,22.76
2022-09-02T17:45:43.573Z,22.80
2022-09-02T17:48:45.135Z,22.79
2022-09-02T17:51:11.723Z,22.53
2022-09-02T17:53:40.405Z,22.62
2022-09-02T17:56:39.487Z,22.46
2022-09-02T17:59:52.430Z,22.50
2022-09-02T18:02:36.304Z,22.43
2022-09-02T18:05:28.922Z,22.48
2022-09-02T18:08:19.894Z,22.58
2022-09-02T18:10:57.816Z,22.60
2022-09-02T18:13:54.154Z,22.82
2022-09-02T18:16:31.177Z,22.74
2022-09-02T18:19:21.047Z,22.75
2022-09-02T18:22:06.390Z,22.71
2022-09-02T18:25:02.099Z,22.49
2022-09-02T18:27:59.981Z,22.26
2022-09-02T18:31:00.665Z,22.44
2022-09-02T18:34:04.566Z,22.61
2022-09-02T18:36:46.294Z,22.41
2022-09-02T18:39:28.192Z,22.35
2022-09-02T18:42:29.800Z,22.53
2022-09-02T18:45:01.106Z,22.50
2022-09-02T18:47:37.665Z,22.55
2022-09-02T18:50:22.099Z,22.29
2022-09-02T18:53:01.372Z,22.22
2022-09-02T18:55:38.636Z,22.19
2022-09-02T18:58:12.736Z,22.28
2022-09-02T19:00:50.832Z,22.64
2022-09-02T19:03:21.640Z,22.60
2022-09-02T19:05:49.712Z,22.76
2022-09-02T19:08:33.945Z,22.66
2022-09-02T19:11:32.461Z,22.46
2022-09-02T19:14:13.094Z,22.49
2022-09-02T19:16:41.385Z,22.45
2022-09-02T19:19:13.731Z,22.40
2022-09-02T19:22:01.011Z,22.61
2022-09-02T19:24:47.239Z,22.48
2022-09-02T19:27:22.426Z,22.42
2022-09-02T19:29:59.127Z,22.66
2022-09-02T19:32:30.416Z,22.49
2022-09-02T19:35:01.627Z,22.40
2022-09-02T19:37:30.716Z,22.34
2022-09-02T19:40:07.758Z,22.24
2022-09-02T19:42:37.397Z,22.36
2022-09-02T19:45:05.753Z,22.19
2022-09-02T19:48:05.416Z,22.13
2022-09-02T19:50:26.113Z,22.15
2022-09-02T19:52:54.212Z,22.36
2022-09-02T19:55:22.384Z,22.31
2022-09-02T19:57:52.124Z,22.10
2022-09-02T20:00:20.644Z,22.13
2022-09-02T20:02:50.378Z,22.24
2022-09-02T20:05:26.421Z,22.22
2022-09-02T20:07:55.292Z,22.07
2022-09-02T20:10:26.906Z,22.14
2022-09-02T20:12:59.341Z,21.85
2022-09-02T20:15:27.797Z,21.77
2022-09-02T20:18:19.590Z,21.89
2022-09-02T20:20:51.710Z,21.76
2022-09-02T20:23:21.507Z,21.74
2022-09-02T20:26:24.148Z,21.75
2022-09-02T20:29:07.572Z,21.80
2022-09-02T20:32:15.976Z,21.70
2022-09-02T20:35:05.331Z,21.65
2022-09-02T20:37:52.141Z,21.92
2022-09-02T20:40:58.670Z,22.03
2022-09-02T20:43:38.913Z,22.25
2022-09-02T20:46:27.042Z,22.18
2022-09-02T20:49:14.164Z,22.08
2022-09-02T20:52:07.554Z,21.92
2022-09-02T20:54:53.387Z,22.01
2022-09-02T20:57:37.196Z,21.93
2022-09-02T21:00:19.902Z,21.79
2022-09-02T21:02:57.486Z,21.91
2022-09-02T21:05:52.734Z,21.43
2022-09-02T21:09:10.782Z,21.79
2022-09-02T21:11:48.065Z,21.49
2022-09-02T21:14:23.492Z,21.83
2022-09-02T21:17:05.079Z,21.63
2022-09-02T21:19:44.813Z,21.83
2022-09-02T21:22:25.728Z,21.50
2022-09-02T21:25:00.158Z,21.54
2022-09-02T21:27:59.334Z,21.93
2022-09-02T21:30:38.851Z,22.04
2022-09-02T21:33:10.824Z,21.60
2022-09-02T21:35:50.244Z,21.68
2022-09-02T21:38:44.817Z,21.60
2022-09-02T21:41:32.899Z,21.64
2022-09-02T21:44:10.585Z,21.48
2022-09-02T21:47:15.907Z,21.12
2022-09-02T21:50:19.970Z,21.21
2022-09-02T21:53:19.265Z,21.33
2022-09-02T21:56:23.111Z,21.42
2022-09-02T21:59:18.104Z,21.24
2022-09-02T22:02:10.306Z,21.43
2022-09-02T22:05:02.478Z,21.49
2022-09-02T22:07:49.799Z,21.34
2022-09-02T22:10:40.624Z,21.61
2022-09-02T22:13:10.840Z,21.50
2022-09-02T22:15:58.267Z,21.41
2022-09-02T22:18:41.367Z,21.17
2022-09-02T22:21:50.080Z,20.93
2022-09-02T22:24:27.050Z,21.23
2022-09-02T22:27:23.738Z,21.00
2022-09-02T22:30:15.735Z,20.96
2022-09-02T22:32:49.124Z,21.03
2022-09-02T22:35:41.648Z,21.02
2022-09-02T22:38:28.369Z,20.53
2022-09-02T22:41:27.068Z,20.85
2022-09-02T22:44:02.473Z,20.95
2022-09-02T22:47:38.823Z,20.81
2022-09-02T22:50:32.946Z,20.96
2022-09-02T22:53:01.813Z,20.81
2022-09-02T22:55:48.386Z,21.00
2022-09-02T22:58:58.977Z,20.68
2022-09-02T23:01:51.884Z,20.75
2022-09-02T23:04:53.375Z,20.79
2022-09-02T23:07:21.932Z,20.82
2022-09-02T23:09:57.218Z,20.83
2022-09-02T23:12:44.140Z,21.10
2022-09-02T23:15:33.239Z,20.69
2022-09-02T23:18:13.032Z,20.59
2022-09-02T23:21:20.537Z,20.58
2022-09-02T23:24:03.417Z,20.48
2022-09-02T23:27:03.697Z,20.55
2022-09-02T23:29:34.297Z,20.32
2022-09-02T23:32:43.863Z,20.44
2022-09-02T23:35:26.616Z,20.71
2022-09-02T23:38:43.287Z,20.81
2022-09-02T23:41:12.705Z,20.79
2022-09-02T23:43:43.996Z,20.76
2022-09-02T23:46:33.624Z,20.62
2022-09-02T23:49:07.204Z,20.67
2022-09-02T23:51:48.940Z,20.41
2022-09-02T23:54:40.115Z,20.51
2022-09-02T23:57:46.282Z,20.50
